createdAt,value
2022-09-24T00:01:40.283Z,65.10
2022-09-24T00:04:11.540Z,65.17
2022-09-24T00:06:44.136Z,65.37
2022-09-24T00:09:12.225Z,65.21
2022-09-24T00:11:40.588Z,65.47
2022-09-24T00:14:09.030Z,65.40
2022-09-24T00:16:40.454Z,65.69
2022-09-24T00:19:08.139Z,65.79
2022-09-24T00:21:37.498Z,65.83
2022-09-24T00:24:09.066Z,65.90
2022-09-24T00:26:51.212Z,66.56
2022-09-24T00:29:20.748Z,66.39
2022-09-24T00:31:48.527Z,66.52
2022-09-24T00:34:16.312Z,66.44
2022-09-24T00:36:44.867Z,66.85
2022-09-24T00:39:14.404Z,67.13
2022-09-24T00:41:44.927Z,66.93
2022-09-24T00:44:50.693Z,66.88
2022-09-24T00:47:27.114Z,67.79
2022-09-24T00:50:03.717Z,67.31
2022-09-24T00:52:31.427Z,67.49
2022-09-24T00:55:01.119Z,67.80
2022-09-24T00:57:29.179Z,68.10
2022-09-24T00:59:57.669Z,67.75
2022-09-24T01:02:25.379Z,67.79
2022-09-24T01:04:56.572Z,67.48
2022-09-24T01:07:25.421Z,67.76
2022-09-24T01:09:53.222Z,67.65
2022-09-24T01:12:33.450Z,67.92
2022-09-24T01:15:12.483Z,67.52
2022-09-24T01:17:50.520Z,67.37
2022-09-24T01:20:46.269Z,68.21
2022-09-24T01:23:37.397Z,68.84
2022-09-24T01:26:19.950Z,68.85
2022-09-24T01:29:06.732Z,68.40
2022-09-24T01:31:40.963Z,68.59
2022-09-24T01:34:12.372Z,68.85
2022-09-24T01:36:41.442Z,68.50
2022-09-24T01:39:10.074Z,68.70
2022-09-24T01:41:39.986Z,69.40
2022-09-24T01:44:07.828Z,69.85
2022-09-24T01:46:39.400Z,69.39
2022-09-24T01:49:07.237Z,69.59
2022-09-24T01:51:39.733Z,69.43
2022-09-24T01:54:12.697Z,69.84
2022-09-24T01:56:46.348Z,69.75
2022-09-24T01:59:17.715Z,69.57
2022-09-24T02:01:54.181Z,69.74
2022-09-24T02:04:23.411Z,69.52
2022-09-24T02:06:56.268Z,69.87
2022-09-24T02:09:30.789Z,69.69
2022-09-24T02:12:02.806Z,69.95
2022-09-24T02:14:33.414Z,69.25
2022-09-24T02:17:05.252Z,69.71
2022-09-24T02:19:37.156Z,70.21
2022-09-24T02:22:07.146Z,70.52
2022-09-24T02:24:43.523Z,70.62
2022-09-24T02:27:11.367Z,70.65
2022-09-24T02:29:39.020Z,70.97
2022-09-24T02:32:12.097Z,71.21
2022-09-24T02:34:43.468Z,71.21
2022-09-24T02:37:14.034Z,72.02
2022-09-24T02:39:41.932Z,71.97
2022-09-24T02:42:11.656Z,71.79
2022-09-24T02:44:39.281Z,71.01
2022-09-24T02:47:09.055Z,71.46
2022-09-24T02:49:36.752Z,71.07
2022-09-24T02:52:04.580Z,71.21
2022-09-24T02:54:32.370Z,70.77
2022-09-24T02:57:00.063Z,70.58
2022-09-24T02:59:27.948Z,70.01
2022-09-24T03:01:55.708Z,69.80
2022-09-24T03:04:25.289Z,70.34
2022-09-24T03:06:53.380Z,70.75
2022-09-24T03:09:21.012Z,70.96
2022-09-24T03:11:48.606Z,70.84
2022-09-24T03:14:16.310Z,70.79
2022-09-24T03:16:43.926Z,71.13
2022-09-24T03:19:11.566Z,70.91
2022-09-24T03:21:40.577Z,70.74
2022-09-24T03:24:08.257Z,70.98
2022-09-24T03:26:36.175Z,71.07
2022-09-24T03:29:04.261Z,70.99
2022-09-24T03:31:30.956Z,71.59
2022-09-24T03:33:59.195Z,72.29
2022-09-24T03:36:27.246Z,72.39
2022-09-24T03:38:57.791Z,72.44
2022-09-24T03:41:26.673Z,72.27
2022-09-24T03:43:54.622Z,72.67
2022-09-24T03:46:24.854Z,73.23
2022-09-24T03:48:52.645Z,73.08
2022-09-24T03:51:20.924Z,73.53
2022-09-24T03:53:49.573Z,73.20
2022-09-24T03:56:18.546Z,73.29
2022-09-24T03:58:47.594Z,72.80
2022-09-24T04:01:21.815Z,72.86
2022-09-24T04:03:49.988Z,73.21
2022-09-24T04:06:23.390Z,72.85
2022-09-24T04:08:53.767Z,72.08
2022-09-24T04:11:23.100Z,71.81
2022-09-24T04:13:50.743Z,72.11
2022-09-24T04:16:18.713Z,72.16
2022-09-24T04:18:48.657Z,71.51
2022-09-24T04:21:16.360Z,71.16
2022-09-24T04:23:44.019Z,71.17
2022-09-24T04:26:12.442Z,70.34
2022-09-24T04:28:41.425Z,69.88
2022-09-24T04:31:09.290Z,69.84
2022-09-24T04:33:36.929Z,69.73
2022-09-24T04:36:04.559Z,70.18
2022-09-24T04:38:32.180Z,70.84
2022-09-24T04:41:06.298Z,71.23
2022-09-24T04:43:34.177Z,72.00
2022-09-24T04:46:03.420Z,71.80
2022-09-24T04:48:31.253Z,71.71
2022-09-24T04:50:58.922Z,71.70
2022-09-24T04:53:26.488Z,71.36
2022-09-24T04:55:54.122Z,71.30
2022-09-24T04:58:21.751Z,71.03
2022-09-24T05:00:51.132Z,70.92
2022-09-24T05:03:21.185Z,71.00
2022-09-24T05:05:50.042Z,70.77
2022-09-24T05:08:17.731Z,71.12
2022-09-24T05:10:45.280Z,70.86
2022-09-24T05:13:13.539Z,70.47
2022-09-24T05:15:43.304Z,70.72
2022-09-24T05:18:11.165Z,70.75
2022-09-24T05:20:40.169Z,70.87
2022-09-24T05:23:08.815Z,71.20
2022-09-24T05:25:57.093Z,71.37
2022-09-24T05:28:23.794Z,71.12
2022-09-24T05:30:51.505Z,71.33
2022-09-24T05:33:19.205Z,71.70
2022-09-24T05:35:54.331Z,71.58
2022-09-24T05:38:21.982Z,71.85
2022-09-24T05:40:49.684Z,71.93
2022-09-24T05:43:19.183Z,71.85
2022-09-24T05:45:47.504Z,71.72
2022-09-24T05:48:15.118Z,72.19
2022-09-24T05:50:42.735Z,72.14
2022-09-24T05:53:11.701Z,71.74
2022-09-24T05:55:39.549Z,71.12
2022-09-24T05:58:08.815Z,70.57
2022-09-24T06:00:36.992Z,69.80
2022-09-24T06:03:07.824Z,69.49
2022-09-24T06:05:35.812Z,69.68
2022-09-24T06:08:03.998Z,70.51
2022-09-24T06:10:33.578Z,70.72
2022-09-24T06:13:01.425Z,70.68
2022-09-24T06:15:29.209Z,70.70
2022-09-24T06:17:56.972Z,70.48
2022-09-24T06:20:24.933Z,70.39
2022-09-24T06:22:56.073Z,70.18
2022-09-24T06:25:23.663Z,70.08
2022-09-24T06:28:00.486Z,69.93
2022-09-24T06:30:29.624Z,70.00
2022-09-24T06:33:02.861Z,69.53
2022-09-24T06:35:30.435Z,69.50
2022-09-24T06:37:58.056Z,69.57
2022-09-24T06:40:26.711Z,69.80
2022-09-24T06:42:55.809Z,70.00
2022-09-24T06:45:23.629Z,69.96
2022-09-24T06:47:54.482Z,70.37
2022-09-24T06:50:23.302Z,70.41
2022-09-24T06:52:51.167Z,69.97
2022-09-24T06:55:19.634Z,69.85
2022-09-24T06:57:47.652Z,69.86
2022-09-24T07:00:17.454Z,70.28
2022-09-24T07:02:45.115Z,70.54
2022-09-24T07:05:12.702Z,70.46
2022-09-24T07:07:41.374Z,70.39
2022-09-24T07:10:10.569Z,70.38
2022-09-24T07:12:38.306Z,70.84
2022-09-24T07:15:07.009Z,70.58
2022-09-24T07:17:36.391Z,70.12
2022-09-24T07:20:05.082Z,69.80
2022-09-24T07:22:32.749Z,69.67
2022-09-24T07:25:00.424Z,69.73
2022-09-24T07:27:28.082Z,69.77
2022-09-24T07:29:55.977Z,70.41
2022-09-24T07:32:28.971Z,70.42
2022-09-24T07:34:58.848Z,70.75
2022-09-24T07:37:26.573Z,70.25
2022-09-24T07:39:54.177Z,70.88
2022-09-24T07:42:21.836Z,71.14
2022-09-24T07:44:50.565Z,71.56
2022-09-24T07:47:18.692Z,71.22
2022-09-24T07:49:46.427Z,70.82
2022-09-24T07:52:15.414Z,70.89
2022-09-24T07:54:43.007Z,70.96
2022-09-24T07:57:13.527Z,70.24
2022-09-24T07:59:41.715Z,68.47
2022-09-24T08:02:16.376Z,69.36
2022-09-24T08:04:44.552Z,68.25
2022-09-24T08:07:12.786Z,68.63
2022-09-24T08:09:41.797Z,67.10
2022-09-24T08:12:10.260Z,68.07
2022-09-24T08:14:37.921Z,67.24
2022-09-24T08:17:05.557Z,66.87
2022-09-24T08:19:33.779Z,66.23
2022-09-24T08:22:01.948Z,66.75
2022-09-24T08:24:29.837Z,66.53
2022-09-24T08:26:59.482Z,67.25
2022-09-24T08:29:27.051Z,66.64
2022-09-24T08:31:54.903Z,67.12
2022-09-24T08:34:22.574Z,66.77
2022-09-24T08:36:50.256Z,67.47
2022-09-24T08:39:17.896Z,66.50
2022-09-24T08:41:56.959Z,66.31
2022-09-24T08:44:49.213Z,67.63
2022-09-24T08:47:34.771Z,66.83
2022-09-24T08:50:09.343Z,67.83
2022-09-24T08:52:49.908Z,66.42
2022-09-24T08:55:21.535Z,67.74
2022-09-24T08:57:56.702Z,67.46
2022-09-24T09:00:25.962Z,67.76
2022-09-24T09:03:02.492Z,68.25
2022-09-24T09:05:50.327Z,67.70
2022-09-24T09:08:52.933Z,67.30
2022-09-24T09:11:22.657Z,67.55
2022-09-24T09:13:55.986Z,67.13
2022-09-24T09:16:29.039Z,66.38
2022-09-24T09:19:01.592Z,67.51
2022-09-24T09:21:35.757Z,67.38
2022-09-24T09:24:05.958Z,65.52
2022-09-24T09:26:34.444Z,64.95
2022-09-24T09:29:02.695Z,64.09
2022-09-24T09:31:44.465Z,62.78
2022-09-24T09:34:29.745Z,63.41
2022-09-24T09:37:11.377Z,61.86
2022-09-24T09:39:46.591Z,61.61
2022-09-24T09:42:27.147Z,61.54
2022-09-24T09:44:55.375Z,61.66
2022-09-24T09:47:40.029Z,60.69
2022-09-24T09:50:16.160Z,61.54
2022-09-24T09:52:43.768Z,62.88
2022-09-24T09:55:22.328Z,63.55
2022-09-24T09:57:51.596Z,63.99
2022-09-24T10:00:34.703Z,64.50
2022-09-24T10:03:05.138Z,64.11
2022-09-24T10:05:32.925Z,64.36
2022-09-24T10:08:00.908Z,64.87
2022-09-24T10:10:30.274Z,64.49
2022-09-24T10:13:09.093Z,64.36
2022-09-24T10:15:49.369Z,63.95
2022-09-24T10:18:24.528Z,65.43
2022-09-24T10:20:52.464Z,65.29
2022-09-24T10:23:22.824Z,64.55
2022-09-24T10:25:53.545Z,64.65
2022-09-24T10:28:39.280Z,64.53
2022-09-24T10:31:13.280Z,64.06
2022-09-24T10:33:45.136Z,65.32
2022-09-24T10:36:17.407Z,64.52
2022-09-24T10:38:45.775Z,64.75
2022-09-24T10:41:26.025Z,64.60
2022-09-24T10:43:56.559Z,63.41
2022-09-24T10:46:51.973Z,63.03
2022-09-24T10:49:34.956Z,62.08
2022-09-24T10:52:10.690Z,62.49
2022-09-24T10:54:51.545Z,62.04
2022-09-24T10:57:30.206Z,59.06
2022-09-24T11:00:05.515Z,57.67
2022-09-24T11:03:03.138Z,55.45
2022-09-24T11:05:36.893Z,55.78
2022-09-24T11:08:23.363Z,56.48
2022-09-24T11:11:19.392Z,57.27
2022-09-24T11:13:58.870Z,56.79
2022-09-24T11:16:51.625Z,56.46
2022-09-24T11:19:37.293Z,57.35
2022-09-24T11:22:13.947Z,58.30
2022-09-24T11:25:10.153Z,58.48
2022-09-24T11:28:04.092Z,59.47
2022-09-24T11:30:47.477Z,60.40
2022-09-24T11:33:28.949Z,59.67
2022-09-24T11:36:11.714Z,59.52
2022-09-24T11:38:59.867Z,58.89
2022-09-24T11:41:40.693Z,57.92
2022-09-24T11:44:39.922Z,58.52
2022-09-24T11:47:26.122Z,58.40
2022-09-24T11:50:12.137Z,58.35
2022-09-24T11:52:45.875Z,58.99
2022-09-24T11:55:19.951Z,59.22
2022-09-24T11:57:54.895Z,59.32
2022-09-24T12:00:23.070Z,60.18
2022-09-24T12:02:53.507Z,59.81
2022-09-24T12:05:29.524Z,60.04
2022-09-24T12:08:02.801Z,60.09
2022-09-24T12:10:36.359Z,59.96
2022-09-24T12:13:13.413Z,59.57
2022-09-24T12:15:49.523Z,58.88
2022-09-24T12:18:22.291Z,57.88
2022-09-24T12:20:53.896Z,57.60
2022-09-24T12:23:28.057Z,58.32
2022-09-24T12:26:00.613Z,58.99
2022-09-24T12:28:53.362Z,59.38
2022-09-24T12:31:47.037Z,59.51
2022-09-24T12:34:22.825Z,60.40
2022-09-24T12:37:01.922Z,59.96
2022-09-24T12:39:36.705Z,59.15
2022-09-24T12:42:09.538Z,59.56
2022-09-24T12:44:43.268Z,59.77
2022-09-24T12:47:19.624Z,59.01
2022-09-24T12:49:53.051Z,59.14
2022-09-24T12:52:26.535Z,59.57
2022-09-24T12:55:03.178Z,58.18
2022-09-24T12:57:36.536Z,57.73
2022-09-24T13:00:26.615Z,59.07
2022-09-24T13:02:55.031Z,58.97
2022-09-24T13:05:28.741Z,59.08
2022-09-24T13:08:00.019Z,59.24
2022-09-24T13:10:30.004Z,59.39
2022-09-24T13:13:00.774Z,59.76
2022-09-24T13:15:36.531Z,59.88
2022-09-24T13:18:08.095Z,59.97
2022-09-24T13:20:37.839Z,60.08
2022-09-24T13:23:31.765Z,60.18
2022-09-24T13:26:03.729Z,60.59
2022-09-24T13:28:38.619Z,60.64
2022-09-24T13:31:13.941Z,61.41
2022-09-24T13:33:45.308Z,60.78
2022-09-24T13:36:17.039Z,60.90
2022-09-24T13:38:54.673Z,61.24
2022-09-24T13:41:30.885Z,61.80
2022-09-24T13:44:04.952Z,61.72
2022-09-24T13:46:35.997Z,61.26
2022-09-24T13:49:11.215Z,61.33
2022-09-24T13:51:42.019Z,61.36
2022-09-24T13:54:18.761Z,60.98
2022-09-24T13:57:01.272Z,60.98
2022-09-24T13:59:31.205Z,61.65
2022-09-24T14:01:59.002Z,61.80
2022-09-24T14:04:26.808Z,62.37
2022-09-24T14:06:57.352Z,62.71
2022-09-24T14:09:31.870Z,62.26
2022-09-24T14:12:01.682Z,62.94
2022-09-24T14:14:32.078Z,63.22
2022-09-24T14:17:17.394Z,63.19
2022-09-24T14:19:45.062Z,63.48
2022-09-24T14:22:17.183Z,63.88
2022-09-24T14:24:54.019Z,64.27
2022-09-24T14:27:24.280Z,63.83
2022-09-24T14:29:57.012Z,63.88
2022-09-24T14:32:30.019Z,63.77
2022-09-24T14:35:00.831Z,63.55
2022-09-24T14:37:32.876Z,63.90
2022-09-24T14:40:04.781Z,63.68
2022-09-24T14:42:37.881Z,64.25
2022-09-24T14:45:10.085Z,64.48
2022-09-24T14:47:38.505Z,64.83
2022-09-24T14:50:27.975Z,64.73
2022-09-24T14:52:57.682Z,64.93
2022-09-24T14:55:38.105Z,64.59
2022-09-24T14:58:05.905Z,64.61
2022-09-24T15:00:46.644Z,63.69
2022-09-24T15:03:17.302Z,64.08
2022-09-24T15:05:46.014Z,64.30
2022-09-24T15:08:28.372Z,65.12
2022-09-24T15:10:57.649Z,65.25
2022-09-24T15:13:27.512Z,65.26
2022-09-24T15:16:20.962Z,65.38
2022-09-24T15:18:58.221Z,65.62
2022-09-24T15:21:27.780Z,65.50
2022-09-24T15:23:57.483Z,66.04
2022-09-24T15:26:30.304Z,66.32
2022-09-24T15:28:58.412Z,66.79
2022-09-24T15:31:27.438Z,66.87
2022-09-24T15:33:56.009Z,67.04
2022-09-24T15:36:23.818Z,66.89
2022-09-24T15:38:52.271Z,67.03
2022-09-24T15:41:20.881Z,67.02
2022-09-24T15:43:48.453Z,67.79
2022-09-24T15:46:16.154Z,67.97
2022-09-24T15:48:45.539Z,68.09
2022-09-24T15:51:15.691Z,68.24
2022-09-24T15:53:43.513Z,68.42
2022-09-24T15:56:11.283Z,68.73
2022-09-24T15:58:38.912Z,68.01
2022-09-24T16:01:07.748Z,68.65
2022-09-24T16:03:35.384Z,69.12
2022-09-24T16:06:04.510Z,69.93
2022-09-24T16:08:32.145Z,70.19
2022-09-24T16:10:59.784Z,70.60
2022-09-24T16:13:27.474Z,70.98
2022-09-24T16:15:55.184Z,71.58
2022-09-24T16:18:25.990Z,71.46
2022-09-24T16:20:53.896Z,71.54
2022-09-24T16:23:22.782Z,71.96
2022-09-24T16:25:58.047Z,71.85
2022-09-24T16:28:26.832Z,72.24
2022-09-24T16:30:54.612Z,72.39
2022-09-24T16:33:22.951Z,72.59
2022-09-24T16:35:51.050Z,73.08
2022-09-24T16:38:22.556Z,73.18
2022-09-24T16:41:00.806Z,73.70
2022-09-24T16:43:28.558Z,73.52
2022-09-24T16:46:01.528Z,73.92
2022-09-24T16:48:29.279Z,73.74
2022-09-24T16:51:03.888Z,74.05
2022-09-24T16:53:35.159Z,75.20
2022-09-24T16:56:16.107Z,75.74
2022-09-24T16:58:45.015Z,76.00
2022-09-24T17:01:14.724Z,76.22
2022-09-24T17:03:43.000Z,76.28
2022-09-24T17:06:19.271Z,73.65
2022-09-24T17:09:04.368Z,72.26
2022-09-24T17:11:33.928Z,71.68
2022-09-24T17:14:01.967Z,72.68
2022-09-24T17:16:30.453Z,72.43
2022-09-24T17:18:58.221Z,73.19
2022-09-24T17:21:25.892Z,73.18
2022-09-24T17:23:53.869Z,73.26
2022-09-24T17:26:22.834Z,72.97
2022-09-24T17:28:54.144Z,71.04
2022-09-24T17:31:23.955Z,70.44
2022-09-24T17:33:56.964Z,69.77
2022-09-24T17:36:25.800Z,69.80
2022-09-24T17:38:53.741Z,70.37
2022-09-24T17:41:21.324Z,70.59
2022-09-24T17:43:49.082Z,71.61
2022-09-24T17:46:21.597Z,72.08
2022-09-24T17:48:52.322Z,71.93
2022-09-24T17:51:21.997Z,71.68
2022-09-24T17:53:51.600Z,71.74
2022-09-24T17:56:20.988Z,72.08
2022-09-24T17:58:48.995Z,72.44
2022-09-24T18:01:20.169Z,72.52
2022-09-24T18:03:49.489Z,72.37
2022-09-24T18:06:17.061Z,72.65
2022-09-24T18:08:46.296Z,72.48
2022-09-24T18:11:17.337Z,71.72
2022-09-24T18:13:45.589Z,71.36
2022-09-24T18:16:14.750Z,71.04
2022-09-24T18:18:44.909Z,71.24
2022-09-24T18:21:14.452Z,71.38
2022-09-24T18:23:42.485Z,71.29
2022-09-24T18:26:12.074Z,70.82
2022-09-24T18:28:41.461Z,70.31
2022-09-24T18:31:10.703Z,70.72
2022-09-24T18:33:40.769Z,70.12
2022-09-24T18:36:12.174Z,70.38
2022-09-24T18:38:39.881Z,69.75
2022-09-24T18:41:10.151Z,69.53
2022-09-24T18:43:38.403Z,69.73
2022-09-24T18:46:07.891Z,69.85
2022-09-24T18:48:36.122Z,70.30
2022-09-24T18:51:05.048Z,70.88
2022-09-24T18:53:35.690Z,70.80
2022-09-24T18:56:09.127Z,70.32
2022-09-24T18:58:36.716Z,70.20
2022-09-24T19:01:09.208Z,70.13
2022-09-24T19:03:39.543Z,70.49
2022-09-24T19:06:08.801Z,69.89
2022-09-24T19:08:37.796Z,70.66
2022-09-24T19:11:09.118Z,70.48
2022-09-24T19:13:37.577Z,70.72
2022-09-24T19:16:07.543Z,69.89
2022-09-24T19:18:36.373Z,69.65
2022-09-24T19:21:06.419Z,68.75
2022-09-24T19:23:38.299Z,68.43
2022-09-24T19:26:07.596Z,68.14
2022-09-24T19:28:36.726Z,67.81
2022-09-24T19:31:06.260Z,67.68
2022-09-24T19:33:34.721Z,67.84
2022-09-24T19:36:04.542Z,67.64
2022-09-24T19:38:35.608Z,68.03
2022-09-24T19:41:06.819Z,67.91
2022-09-24T19:43:35.296Z,67.49
2022-09-24T19:46:05.308Z,67.09
2022-09-24T19:48:36.840Z,66.62
2022-09-24T19:51:07.190Z,67.31
2022-09-24T19:53:34.789Z,67.04
2022-09-24T19:56:05.019Z,66.67
2022-09-24T19:58:32.720Z,67.56
2022-09-24T20:01:02.871Z,67.87
2022-09-24T20:03:32.146Z,68.53
2022-09-24T20:05:59.909Z,68.55
2022-09-24T20:08:28.190Z,69.99
2022-09-24T20:10:55.728Z,70.70
2022-09-24T20:13:25.833Z,72.90
2022-09-24T20:15:59.097Z,75.14
2022-09-24T20:18:27.113Z,77.80
2022-09-24T20:20:55.306Z,79.71
2022-09-24T20:23:23.475Z,84.14
2022-09-24T20:26:09.145Z,88.66
2022-09-24T20:28:38.448Z,90.62
2022-09-24T20:31:10.884Z,89.80
2022-09-24T20:33:41.027Z,89.99
2022-09-24T20:36:15.436Z,92.30
2022-09-24T20:38:45.960Z,92.36
2022-09-24T20:41:15.682Z,93.34
2022-09-24T20:43:45.488Z,93.06
2022-09-24T20:46:16.951Z,94.43
2022-09-24T20:48:45.225Z,94.97
2022-09-24T20:51:14.891Z,95.09
2022-09-24T20:53:42.678Z,96.51
2022-09-24T20:56:10.649Z,96.70
2022-09-24T20:58:39.949Z,96.45
2022-09-24T21:01:10.742Z,95.96
2022-09-24T21:03:45.574Z,95.70
2022-09-24T21:06:14.976Z,94.70
2022-09-24T21:08:44.346Z,94.61
2022-09-24T21:11:13.218Z,93.77
2022-09-24T21:13:42.162Z,93.34
2022-09-24T21:16:11.864Z,93.54
2022-09-24T21:18:42.861Z,93.57
2022-09-24T21:21:12.140Z,92.97
2022-09-24T21:23:40.244Z,92.92
2022-09-24T21:26:12.586Z,94.75
2022-09-24T21:28:40.598Z,96.30
2022-09-24T21:31:08.331Z,96.16
2022-09-24T21:33:37.713Z,95.08
2022-09-24T21:36:07.595Z,95.63
2022-09-24T21:38:35.281Z,94.87
2022-09-24T21:41:08.312Z,94.63
2022-09-24T21:43:36.412Z,94.71
2022-09-24T21:46:06.446Z,95.68
2022-09-24T21:48:35.220Z,96.05
2022-09-24T21:51:06.054Z,95.90
2022-09-24T21:53:34.651Z,95.45
2022-09-24T21:56:03.237Z,95.48
2022-09-24T21:58:31.323Z,95.08
2022-09-24T22:01:03.197Z,95.01
2022-09-24T22:03:32.850Z,95.19
2022-09-24T22:06:04.753Z,94.80
2022-09-24T22:08:32.414Z,94.02
2022-09-24T22:11:04.701Z,93.06
2022-09-24T22:13:33.499Z,93.25
2022-09-24T22:16:01.801Z,93.73
2022-09-24T22:18:30.377Z,96.13
2022-09-24T22:20:58.743Z,97.52
2022-09-24T22:23:27.687Z,97.21
2022-09-24T22:25:56.983Z,97.10
2022-09-24T22:28:25.441Z,97.04
2022-09-24T22:30:53.977Z,96.52
2022-09-24T22:33:39.845Z,95.16
2022-09-24T22:36:08.021Z,95.21
2022-09-24T22:38:37.511Z,97.04
2022-09-24T22:41:08.102Z,97.77
2022-09-24T22:43:36.076Z,98.46
2022-09-24T22:46:06.315Z,97.86
2022-09-24T22:48:34.638Z,96.79
2022-09-24T22:51:03.235Z,96.69
2022-09-24T22:53:33.837Z,96.51
2022-09-24T22:56:07.364Z,96.48
2022-09-24T22:58:35.455Z,96.24
2022-09-24T23:01:07.541Z,95.20
2022-09-24T23:03:35.875Z,94.54
2022-09-24T23:06:03.629Z,94.88
2022-09-24T23:08:33.205Z,94.90
2022-09-24T23:11:08.481Z,95.39
2022-09-24T23:13:36.635Z,95.22
2022-09-24T23:16:08.627Z,94.69
2022-09-24T23:18:36.226Z,94.89
2022-09-24T23:21:06.228Z,95.46
2022-09-24T23:23:34.274Z,95.40
2022-09-24T23:26:04.914Z,95.54
2022-09-24T23:28:35.480Z,95.14
2022-09-24T23:31:03.993Z,94.82
2022-09-24T23:33:33.573Z,94.95
2022-09-24T23:36:01.858Z,94.67
2022-09-24T23:38:30.710Z,94.84
2022-09-24T23:40:58.744Z,95.03
2022-09-24T23:43:27.051Z,94.61
2022-09-24T23:45:56.351Z,93.90
2022-09-24T23:48:24.872Z,93.20
2022-09-24T23:50:52.505Z,94.14
2022-09-24T23:53:21.703Z,93.99
2022-09-24T23:55:50.143Z,93.76
2022-09-24T23:58:20.002Z,93.24
